sensor_id;sensor_type;location;lat;lon;timestamp;P1;durP1;ratioP1;P2;durP2;ratioP2
74519;SDS011;63002;48.134;-1.948;2023-09-12T05:02:16;3.63;;;1.00;;
74519;SDS011;63002;48.134;-1.948;2023-09-12T05:04:41;2.40;;;0.70;;
74519;SDS011;63002;48.134;-1.948;2023-09-12T05:07:07;2.17;;;0.73;;
74519;SDS011;63002;48.134;-1.948;2023-09-12T05:09:33;3.42;;;0.80;;
74519;SDS011;63002;48.134;-1.948;2023-09-12T05:11:59;2.33;;;0.80;;
74519;SDS011;63002;48.134;-1.948;2023-09-12T05:14:25;1.98;;;0.75;;
74519;SDS011;63002;48.134;-1.948;2023-09-12T05:16:50;1.80;;;0.60;;
74519;SDS011;63002;48.134;-1.948;2023-09-12T05:19:16;2.13;;;0.85;;
74519;SDS011;63002;48.134;-1.948;2023-09-12T05:21:42;2.27;;;0.63;;
74519;SDS011;63002;48.134;-1.948;2023-09-12T05:24:07;6.22;;;1.23;;
74519;SDS011;63002;48.134;-1.948;2023-09-12T05:26:33;3.72;;;0.70;;
74519;SDS011;63002;48.134;-1.948;2023-09-12T05:28:59;4.97;;;1.25;;
74519;SDS011;63002;48.134;-1.948;2023-09-12T05:31:25;2.57;;;0.70;;
74519;SDS011;63002;48.134;-1.948;2023-09-12T05:33:50;3.38;;;1.08;;
74519;SDS011;63002;48.134;-1.948;2023-09-12T05:36:16;12.53;;;1.40;;
74519;SDS011;63002;48.134;-1.948;2023-09-12T05:38:42;15.63;;;2.45;;
74519;SDS011;63002;48.134;-1.948;2023-09-12T05:41:07;6.43;;;1.23;;
74519;SDS011;63002;48.134;-1.948;2023-09-12T05:43:33;8.52;;;2.00;;
74519;SDS011;63002;48.134;-1.948;2023-09-12T05:45:59;9.45;;;3.42;;
74519;SDS011;63002;48.134;-1.948;2023-09-12T05:48:24;8.47;;;2.70;;
74519;SDS011;63002;48.134;-1.948;2023-09-12T05:50:50;6.18;;;2.20;;
74519;SDS011;63002;48.134;-1.948;2023-09-12T05:53:16;8.37;;;1.73;;
74519;SDS011;63002;48.134;-1.948;2023-09-12T05:55:41;6.15;;;1.27;;
74519;SDS011;63002;48.134;-1.948;2023-09-12T05:58:07;8.83;;;1.43;;
74519;SDS011;63002;48.134;-1.948;2023-09-12T06:00:33;5.75;;;1.38;;
74519;SDS011;63002;48.134;-1.948;2023-09-12T06:02:59;4.03;;;1.30;;
74519;SDS011;63002;48.134;-1.948;2023-09-12T06:05:25;5.95;;;1.88;;
74519;SDS011;63002;48.134;-1.948;2023-09-12T06:07:50;5.35;;;2.00;;
74519;SDS011;63002;48.134;-1.948;2023-09-12T06:10:16;9.70;;;1.70;;
74519;SDS011;63002;48.134;-1.948;2023-09-12T06:12:42;5.72;;;1.40;;
74519;SDS011;63002;48.134;-1.948;2023-09-12T06:15:08;8.13;;;2.03;;
74519;SDS011;63002;48.134;-1.948;2023-09-12T06:17:34;15.63;;;2.90;;
74519;SDS011;63002;48.134;-1.948;2023-09-12T06:19:59;14.23;;;2.77;;
74519;SDS011;63002;48.134;-1.948;2023-09-12T06:22:25;12.00;;;2.55;;
74519;SDS011;63002;48.134;-1.948;2023-09-12T06:24:51;11.65;;;2.90;;
74519;SDS011;63002;48.134;-1.948;2023-09-12T06:27:17;9.37;;;2.40;;
74519;SDS011;63002;48.134;-1.948;2023-09-12T06:29:46;8.63;;;2.03;;
74519;SDS011;63002;48.134;-1.948;2023-09-12T06:32:18;12.27;;;2.38;;
74519;SDS011;63002;48.134;-1.948;2023-09-12T06:34:44;11.25;;;2.40;;
74519;SDS011;63002;48.134;-1.948;2023-09-12T06:37:13;8.37;;;2.07;;
74519;SDS011;63002;48.134;-1.948;2023-09-12T06:39:38;8.02;;;1.92;;
74519;SDS011;63002;48.134;-1.948;2023-09-12T06:42:04;7.93;;;1.70;;
74519;SDS011;63002;48.134;-1.948;2023-09-12T06:44:30;9.70;;;1.98;;
74519;SDS011;63002;48.134;-1.948;2023-09-12T06:46:56;6.07;;;1.90;;
74519;SDS011;63002;48.134;-1.948;2023-09-12T06:49:22;6.80;;;1.90;;
74519;SDS011;63002;48.134;-1.948;2023-09-12T06:51:47;7.60;;;1.42;;
74519;SDS011;63002;48.134;-1.948;2023-09-12T06:54:13;7.72;;;1.60;;
74519;SDS011;63002;48.134;-1.948;2023-09-12T06:56:40;5.73;;;1.53;;
74519;SDS011;63002;48.134;-1.948;2023-09-12T06:59:07;6.55;;;1.80;;
74519;SDS011;63002;48.134;-1.948;2023-09-12T07:01:34;5.97;;;1.42;;
74519;SDS011;63002;48.134;-1.948;2023-09-12T07:03:59;6.30;;;1.67;;
74519;SDS011;63002;48.134;-1.948;2023-09-12T07:06:25;7.40;;;1.80;;
74519;SDS011;63002;48.134;-1.948;2023-09-12T07:08:51;9.30;;;1.45;;
74519;SDS011;63002;48.134;-1.948;2023-09-12T07:11:17;8.35;;;1.58;;
74519;SDS011;63002;48.134;-1.948;2023-09-12T07:13:44;4.97;;;1.33;;
74519;SDS011;63002;48.134;-1.948;2023-09-12T07:16:10;10.07;;;1.40;;
74519;SDS011;63002;48.134;-1.948;2023-09-12T07:18:37;5.35;;;1.50;;
74519;SDS011;63002;48.134;-1.948;2023-09-12T07:21:03;5.57;;;1.40;;
74519;SDS011;63002;48.134;-1.948;2023-09-12T07:23:30;6.10;;;1.08;;
74519;SDS011;63002;48.134;-1.948;2023-09-12T07:25:56;5.65;;;1.00;;
74519;SDS011;63002;48.134;-1.948;2023-09-12T07:28:25;5.85;;;1.58;;
74519;SDS011;63002;48.134;-1.948;2023-09-12T07:30:52;4.82;;;1.23;;
74519;SDS011;63002;48.134;-1.948;2023-09-12T07:33:21;5.45;;;1.33;;
74519;SDS011;63002;48.134;-1.948;2023-09-12T07:35:47;4.72;;;1.38;;
74519;SDS011;63002;48.134;-1.948;2023-09-12T07:38:14;4.75;;;1.10;;
74519;SDS011;63002;48.134;-1.948;2023-09-12T07:40:42;4.78;;;1.00;;
74519;SDS011;63002;48.134;-1.948;2023-09-12T07:43:09;4.30;;;1.20;;
74519;SDS011;63002;48.134;-1.948;2023-09-12T07:45:35;3.03;;;0.93;;
74519;SDS011;63002;48.134;-1.948;2023-09-12T07:48:06;5.32;;;1.10;;
74519;SDS011;63002;48.134;-1.948;2023-09-12T07:50:34;5.72;;;1.30;;
74519;SDS011;63002;48.134;-1.948;2023-09-12T07:53:00;3.35;;;0.90;;
74519;SDS011;63002;48.134;-1.948;2023-09-12T07:55:25;5.72;;;1.35;;
74519;SDS011;63002;48.134;-1.948;2023-09-12T07:57:55;3.75;;;0.88;;
74519;SDS011;63002;48.134;-1.948;2023-09-12T08:00:21;2.97;;;0.80;;
74519;SDS011;63002;48.134;-1.948;2023-09-12T08:02:46;3.70;;;1.10;;
74519;SDS011;63002;48.134;-1.948;2023-09-12T08:05:12;3.20;;;0.90;;
74519;SDS011;63002;48.134;-1.948;2023-09-12T08:07:38;4.53;;;1.00;;
74519;SDS011;63002;48.134;-1.948;2023-09-12T08:10:04;3.30;;;1.10;;
74519;SDS011;63002;48.134;-1.948;2023-09-12T08:12:30;4.83;;;0.90;;
74519;SDS011;63002;48.134;-1.948;2023-09-12T08:14:56;4.82;;;1.00;;
74519;SDS011;63002;48.134;-1.948;2023-09-12T08:17:22;3.22;;;0.93;;
74519;SDS011;63002;48.134;-1.948;2023-09-12T08:19:48;3.90;;;0.90;;
74519;SDS011;63002;48.134;-1.948;2023-09-12T08:22:14;2.60;;;0.70;;
74519;SDS011;63002;48.134;-1.948;2023-09-12T08:24:40;3.22;;;0.90;;
74519;SDS011;63002;48.134;-1.948;2023-09-12T08:27:05;3.57;;;0.90;;
74519;SDS011;63002;48.134;-1.948;2023-09-12T08:29:32;6.07;;;1.20;;
74519;SDS011;63002;48.134;-1.948;2023-09-12T08:31:58;3.45;;;1.00;;
74519;SDS011;63002;48.134;-1.948;2023-09-12T08:34:25;3.25;;;0.90;;
74519;SDS011;63002;48.134;-1.948;2023-09-12T08:36:51;3.20;;;0.70;;
74519;SDS011;63002;48.134;-1.948;2023-09-12T08:39:18;3.38;;;0.73;;
74519;SDS011;63002;48.134;-1.948;2023-09-12T08:41:49;2.80;;;0.80;;
74519;SDS011;63002;48.134;-1.948;2023-09-12T08:44:15;2.75;;;0.77;;
74519;SDS011;63002;48.134;-1.948;2023-09-12T08:46:41;3.75;;;0.75;;
74519;SDS011;63002;48.134;-1.948;2023-09-12T08:49:07;3.17;;;1.10;;
74519;SDS011;63002;48.134;-1.948;2023-09-12T08:51:35;3.50;;;0.80;;
74519;SDS011;63002;48.134;-1.948;2023-09-12T08:54:02;2.45;;;0.90;;
74519;SDS011;63002;48.134;-1.948;2023-09-12T08:56:29;3.23;;;0.97;;
74519;SDS011;63002;48.134;-1.948;2023-09-12T08:58:56;3.33;;;1.05;;
74519;SDS011;63002;48.134;-1.948;2023-09-12T09:01:23;4.68;;;0.80;;
74519;SDS011;63002;48.134;-1.948;2023-09-12T09:03:52;3.40;;;0.82;;
74519;SDS011;63002;48.134;-1.948;2023-09-12T09:06:19;2.47;;;0.60;;
74519;SDS011;63002;48.134;-1.948;2023-09-12T09:08:47;2.63;;;0.68;;
74519;SDS011;63002;48.134;-1.948;2023-09-12T09:11:14;2.83;;;1.00;;
74519;SDS011;63002;48.134;-1.948;2023-09-12T09:13:40;2.13;;;0.50;;
74519;SDS011;63002;48.134;-1.948;2023-09-12T09:16:15;2.00;;;0.70;;
74519;SDS011;63002;48.134;-1.948;2023-09-12T09:21:30;3.58;;;1.00;;
74519;SDS011;63002;48.134;-1.948;2023-09-12T09:23:58;2.60;;;0.77;;
74519;SDS011;63002;48.134;-1.948;2023-09-12T09:26:41;2.10;;;0.60;;
74519;SDS011;63002;48.134;-1.948;2023-09-12T09:29:19;2.65;;;0.73;;
74519;SDS011;63002;48.134;-1.948;2023-09-12T09:31:47;2.38;;;0.52;;
74519;SDS011;63002;48.134;-1.948;2023-09-12T09:34:15;1.30;;;0.50;;
74519;SDS011;63002;48.134;-1.948;2023-09-12T09:36:48;2.47;;;0.93;;
74519;SDS011;63002;48.134;-1.948;2023-09-12T09:39:18;2.20;;;0.70;;
74519;SDS011;63002;48.134;-1.948;2023-09-12T09:41:48;2.67;;;0.82;;
74519;SDS011;63002;48.134;-1.948;2023-09-12T09:44:15;2.53;;;0.70;;
74519;SDS011;63002;48.134;-1.948;2023-09-12T09:46:45;2.28;;;0.90;;
74519;SDS011;63002;48.134;-1.948;2023-09-12T09:49:14;2.05;;;0.93;;
74519;SDS011;63002;48.134;-1.948;2023-09-12T09:51:43;1.63;;;0.67;;
74519;SDS011;63002;48.134;-1.948;2023-09-12T09:54:10;3.38;;;0.70;;
74519;SDS011;63002;48.134;-1.948;2023-09-12T09:56:48;2.45;;;0.90;;
74519;SDS011;63002;48.134;-1.948;2023-09-12T09:59:16;2.03;;;0.50;;
74519;SDS011;63002;48.134;-1.948;2023-09-12T10:01:44;1.95;;;0.90;;
74519;SDS011;63002;48.134;-1.948;2023-09-12T10:04:11;1.93;;;0.70;;
74519;SDS011;63002;48.134;-1.948;2023-09-12T10:06:37;2.28;;;0.82;;
74519;SDS011;63002;48.134;-1.948;2023-09-12T10:09:11;1.63;;;0.50;;
74519;SDS011;63002;48.134;-1.948;2023-09-12T10:11:42;2.45;;;0.63;;
74519;SDS011;63002;48.134;-1.948;2023-09-12T10:14:10;2.22;;;0.70;;
74519;SDS011;63002;48.134;-1.948;2023-09-12T10:16:50;2.33;;;0.57;;
74519;SDS011;63002;48.134;-1.948;2023-09-12T10:19:20;2.35;;;0.63;;
74519;SDS011;63002;48.134;-1.948;2023-09-12T10:24:28;2.22;;;0.63;;
74519;SDS011;63002;48.134;-1.948;2023-09-12T10:26:55;1.60;;;0.65;;
74519;SDS011;63002;48.134;-1.948;2023-09-12T10:29:23;1.80;;;0.67;;
74519;SDS011;63002;48.134;-1.948;2023-09-12T10:31:49;1.35;;;0.52;;
74519;SDS011;63002;48.134;-1.948;2023-09-12T10:34:15;2.38;;;0.60;;
74519;SDS011;63002;48.134;-1.948;2023-09-12T10:36:42;1.70;;;0.60;;
74519;SDS011;63002;48.134;-1.948;2023-09-12T10:39:09;1.65;;;0.40;;
74519;SDS011;63002;48.134;-1.948;2023-09-12T10:41:37;1.55;;;0.60;;
74519;SDS011;63002;48.134;-1.948;2023-09-12T10:44:16;1.40;;;0.50;;
74519;SDS011;63002;48.134;-1.948;2023-09-12T10:46:43;1.73;;;0.70;;
74519;SDS011;63002;48.134;-1.948;2023-09-12T10:49:11;1.63;;;0.60;;
74519;SDS011;63002;48.134;-1.948;2023-09-12T10:51:41;1.40;;;0.50;;
74519;SDS011;63002;48.134;-1.948;2023-09-12T10:54:08;2.15;;;0.50;;
74519;SDS011;63002;48.134;-1.948;2023-09-12T10:56:38;1.27;;;0.40;;
74519;SDS011;63002;48.134;-1.948;2023-09-12T11:01:31;2.63;;;0.70;;
74519;SDS011;63002;48.134;-1.948;2023-09-12T11:03:58;2.17;;;0.50;;
74519;SDS011;63002;48.134;-1.948;2023-09-12T11:06:43;1.70;;;0.60;;
74519;SDS011;63002;48.134;-1.948;2023-09-12T11:09:22;2.15;;;0.93;;
74519;SDS011;63002;48.134;-1.948;2023-09-12T11:11:49;1.55;;;0.60;;
74519;SDS011;63002;48.134;-1.948;2023-09-12T11:14:30;1.30;;;0.50;;
74519;SDS011;63002;48.134;-1.948;2023-09-12T11:19:43;1.90;;;0.60;;
74519;SDS011;63002;48.134;-1.948;2023-09-12T11:24:52;2.03;;;0.73;;
74519;SDS011;63002;48.134;-1.948;2023-09-12T11:27:19;1.38;;;0.35;;
74519;SDS011;63002;48.134;-1.948;2023-09-12T11:29:46;1.73;;;0.50;;
74519;SDS011;63002;48.134;-1.948;2023-09-12T11:32:24;1.98;;;0.85;;
74519;SDS011;63002;48.134;-1.948;2023-09-12T11:34:52;1.63;;;0.50;;
74519;SDS011;63002;48.134;-1.948;2023-09-12T11:37:24;1.58;;;0.50;;
74519;SDS011;63002;48.134;-1.948;2023-09-12T11:39:51;1.20;;;0.52;;
74519;SDS011;63002;48.134;-1.948;2023-09-12T11:42:18;1.85;;;0.60;;
74519;SDS011;63002;48.134;-1.948;2023-09-12T11:44:44;1.87;;;0.70;;
74519;SDS011;63002;48.134;-1.948;2023-09-12T11:47:10;1.20;;;0.50;;
74519;SDS011;63002;48.134;-1.948;2023-09-12T11:49:40;1.85;;;0.57;;
74519;SDS011;63002;48.134;-1.948;2023-09-12T11:52:10;1.60;;;0.60;;
74519;SDS011;63002;48.134;-1.948;2023-09-12T11:54:41;3.13;;;0.47;;
74519;SDS011;63002;48.134;-1.948;2023-09-12T11:57:11;1.30;;;0.43;;
74519;SDS011;63002;48.134;-1.948;2023-09-12T11:59:42;2.80;;;0.75;;
74519;SDS011;63002;48.134;-1.948;2023-09-12T12:02:16;1.75;;;0.50;;
74519;SDS011;63002;48.134;-1.948;2023-09-12T12:04:43;1.55;;;0.73;;
74519;SDS011;63002;48.134;-1.948;2023-09-12T12:07:10;1.83;;;0.40;;
74519;SDS011;63002;48.134;-1.948;2023-09-12T12:09:36;2.40;;;0.60;;
74519;SDS011;63002;48.134;-1.948;2023-09-12T12:12:11;1.40;;;0.60;;
74519;SDS011;63002;48.134;-1.948;2023-09-12T12:14:39;1.30;;;0.50;;
74519;SDS011;63002;48.134;-1.948;2023-09-12T12:17:06;1.20;;;0.50;;
74519;SDS011;63002;48.134;-1.948;2023-09-12T12:19:36;1.35;;;0.57;;
74519;SDS011;63002;48.134;-1.948;2023-09-12T12:22:03;1.42;;;0.70;;
74519;SDS011;63002;48.134;-1.948;2023-09-12T12:24:37;1.50;;;0.63;;
74519;SDS011;63002;48.134;-1.948;2023-09-12T12:27:03;1.00;;;0.40;;
74519;SDS011;63002;48.134;-1.948;2023-09-12T12:29:30;1.57;;;0.53;;
74519;SDS011;63002;48.134;-1.948;2023-09-12T12:32:01;1.65;;;0.43;;
74519;SDS011;63002;48.134;-1.948;2023-09-12T12:34:27;1.17;;;0.50;;
74519;SDS011;63002;48.134;-1.948;2023-09-12T12:36:54;1.20;;;0.50;;
74519;SDS011;63002;48.134;-1.948;2023-09-12T12:39:23;1.75;;;0.55;;
74519;SDS011;63002;48.134;-1.948;2023-09-12T12:41:51;1.20;;;0.50;;
74519;SDS011;63002;48.134;-1.948;2023-09-12T12:44:18;1.27;;;0.50;;
74519;SDS011;63002;48.134;-1.948;2023-09-12T12:46:50;1.45;;;0.70;;
74519;SDS011;63002;48.134;-1.948;2023-09-12T12:49:20;1.20;;;0.45;;
74519;SDS011;63002;48.134;-1.948;2023-09-12T12:51:47;1.20;;;0.60;;
74519;SDS011;63002;48.134;-1.948;2023-09-12T12:54:13;1.50;;;0.50;;
74519;SDS011;63002;48.134;-1.948;2023-09-12T12:56:40;2.10;;;0.52;;
74519;SDS011;63002;48.134;-1.948;2023-09-12T12:59:06;1.20;;;0.52;;
74519;SDS011;63002;48.134;-1.948;2023-09-12T13:01:36;1.67;;;0.70;;
74519;SDS011;63002;48.134;-1.948;2023-09-12T13:04:07;1.42;;;0.68;;
74519;SDS011;63002;48.134;-1.948;2023-09-12T13:06:33;1.40;;;0.57;;
74519;SDS011;63002;48.134;-1.948;2023-09-12T13:09:03;1.38;;;0.50;;
74519;SDS011;63002;48.134;-1.948;2023-09-12T13:11:31;1.73;;;0.50;;
74519;SDS011;63002;48.134;-1.948;2023-09-12T13:13:59;1.42;;;0.40;;
74519;SDS011;63002;48.134;-1.948;2023-09-12T13:16:27;1.45;;;0.70;;
74519;SDS011;63002;48.134;-1.948;2023-09-12T13:18:53;1.03;;;0.40;;
74519;SDS011;63002;48.134;-1.948;2023-09-12T13:21:19;1.33;;;0.40;;
74519;SDS011;63002;48.134;-1.948;2023-09-12T13:23:45;1.80;;;0.80;;
74519;SDS011;63002;48.134;-1.948;2023-09-12T13:26:10;2.05;;;0.65;;
74519;SDS011;63002;48.134;-1.948;2023-09-12T13:28:36;1.63;;;0.80;;
74519;SDS011;63002;48.134;-1.948;2023-09-12T13:31:02;1.95;;;0.40;;
74519;SDS011;63002;48.134;-1.948;2023-09-12T13:33:28;2.35;;;0.80;;
74519;SDS011;63002;48.134;-1.948;2023-09-12T13:35:54;1.30;;;0.50;;
74519;SDS011;63002;48.134;-1.948;2023-09-12T13:38:20;1.08;;;0.47;;
74519;SDS011;63002;48.134;-1.948;2023-09-12T13:40:47;1.42;;;0.50;;
74519;SDS011;63002;48.134;-1.948;2023-09-12T13:43:13;1.38;;;0.50;;
74519;SDS011;63002;48.134;-1.948;2023-09-12T13:45:40;0.85;;;0.30;;
74519;SDS011;63002;48.134;-1.948;2023-09-12T13:48:06;1.48;;;0.40;;
74519;SDS011;63002;48.134;-1.948;2023-09-12T13:50:33;1.40;;;0.40;;
74519;SDS011;63002;48.134;-1.948;2023-09-12T13:52:59;1.00;;;0.40;;
74519;SDS011;63002;48.134;-1.948;2023-09-12T13:55:28;1.03;;;0.40;;
74519;SDS011;63002;48.134;-1.948;2023-09-12T13:57:55;0.98;;;0.40;;
74519;SDS011;63002;48.134;-1.948;2023-09-12T14:00:20;1.20;;;0.40;;
74519;SDS011;63002;48.134;-1.948;2023-09-12T14:02:46;0.97;;;0.37;;
74519;SDS011;63002;48.134;-1.948;2023-09-12T14:05:12;1.00;;;0.40;;
74519;SDS011;63002;48.134;-1.948;2023-09-12T14:07:38;1.03;;;0.40;;
74519;SDS011;63002;48.134;-1.948;2023-09-12T14:10:07;1.00;;;0.40;;
74519;SDS011;63002;48.134;-1.948;2023-09-12T14:12:33;1.75;;;0.40;;
74519;SDS011;63002;48.134;-1.948;2023-09-12T14:14:59;1.23;;;0.50;;
74519;SDS011;63002;48.134;-1.948;2023-09-12T14:17:26;1.67;;;0.40;;
74519;SDS011;63002;48.134;-1.948;2023-09-12T14:19:53;1.30;;;0.60;;
74519;SDS011;63002;48.134;-1.948;2023-09-12T14:22:19;1.40;;;0.70;;
74519;SDS011;63002;48.134;-1.948;2023-09-12T14:24:46;1.60;;;0.40;;
74519;SDS011;63002;48.134;-1.948;2023-09-12T14:27:12;1.02;;;0.50;;
74519;SDS011;63002;48.134;-1.948;2023-09-12T14:29:38;1.70;;;0.40;;
74519;SDS011;63002;48.134;-1.948;2023-09-12T14:32:03;1.05;;;0.40;;
74519;SDS011;63002;48.134;-1.948;2023-09-12T14:34:29;1.73;;;0.60;;
74519;SDS011;63002;48.134;-1.948;2023-09-12T14:36:58;1.38;;;0.50;;
74519;SDS011;63002;48.134;-1.948;2023-09-12T14:39:24;1.08;;;0.50;;
74519;SDS011;63002;48.134;-1.948;2023-09-12T14:41:50;1.50;;;0.60;;
74519;SDS011;63002;48.134;-1.948;2023-09-12T14:44:21;1.27;;;0.60;;
74519;SDS011;63002;48.134;-1.948;2023-09-12T14:46:48;1.37;;;0.40;;
74519;SDS011;63002;48.134;-1.948;2023-09-12T14:49:14;1.65;;;0.60;;
74519;SDS011;63002;48.134;-1.948;2023-09-12T14:51:40;1.30;;;0.57;;
74519;SDS011;63002;48.134;-1.948;2023-09-12T14:54:06;1.67;;;0.40;;
74519;SDS011;63002;48.134;-1.948;2023-09-12T14:56:32;0.90;;;0.30;;
74519;SDS011;63002;48.134;-1.948;2023-09-12T14:58:59;2.00;;;0.57;;
74519;SDS011;63002;48.134;-1.948;2023-09-12T15:01:25;1.58;;;0.50;;
74519;SDS011;63002;48.134;-1.948;2023-09-12T15:03:52;1.35;;;0.40;;
74519;SDS011;63002;48.134;-1.948;2023-09-12T15:06:18;1.70;;;0.40;;
74519;SDS011;63002;48.134;-1.948;2023-09-12T15:08:44;1.48;;;0.40;;
74519;SDS011;63002;48.134;-1.948;2023-09-12T15:11:10;1.30;;;0.40;;
74519;SDS011;63002;48.134;-1.948;2023-09-12T15:13:36;1.80;;;0.40;;
74519;SDS011;63002;48.134;-1.948;2023-09-12T15:16:02;1.30;;;0.40;;
74519;SDS011;63002;48.134;-1.948;2023-09-12T15:18:28;1.75;;;0.50;;
74519;SDS011;63002;48.134;-1.948;2023-09-12T15:20:54;1.38;;;0.43;;
74519;SDS011;63002;48.134;-1.948;2023-09-12T15:23:20;1.10;;;0.30;;
74519;SDS011;63002;48.134;-1.948;2023-09-12T15:25:48;1.02;;;0.40;;
74519;SDS011;63002;48.134;-1.948;2023-09-12T15:28:14;1.60;;;0.50;;
74519;SDS011;63002;48.134;-1.948;2023-09-12T15:30:40;1.30;;;0.50;;
74519;SDS011;63002;48.134;-1.948;2023-09-12T15:33:05;1.05;;;0.38;;
74519;SDS011;63002;48.134;-1.948;2023-09-12T15:35:31;2.72;;;0.50;;
74519;SDS011;63002;48.134;-1.948;2023-09-12T15:37:57;1.43;;;0.50;;
74519;SDS011;63002;48.134;-1.948;2023-09-12T15:40:23;3.70;;;0.60;;
74519;SDS011;63002;48.134;-1.948;2023-09-12T15:42:49;1.40;;;0.40;;
74519;SDS011;63002;48.134;-1.948;2023-09-12T15:45:15;1.05;;;0.40;;
74519;SDS011;63002;48.134;-1.948;2023-09-12T15:47:42;1.50;;;0.40;;
74519;SDS011;63002;48.134;-1.948;2023-09-12T15:50:08;1.40;;;0.47;;
74519;SDS011;63002;48.134;-1.948;2023-09-12T15:52:35;1.63;;;0.43;;
74519;SDS011;63002;48.134;-1.948;2023-09-12T15:55:07;1.50;;;0.57;;
74519;SDS011;63002;48.134;-1.948;2023-09-12T15:57:35;2.03;;;0.50;;
74519;SDS011;63002;48.134;-1.948;2023-09-12T16:00:03;1.38;;;0.40;;
74519;SDS011;63002;48.134;-1.948;2023-09-12T16:02:32;2.80;;;0.57;;
74519;SDS011;63002;48.134;-1.948;2023-09-12T16:05:01;2.47;;;0.40;;
74519;SDS011;63002;48.134;-1.948;2023-09-12T16:07:27;2.10;;;0.50;;
74519;SDS011;63002;48.134;-1.948;2023-09-12T16:09:56;1.40;;;0.40;;
74519;SDS011;63002;48.134;-1.948;2023-09-12T16:12:22;2.67;;;0.40;;
74519;SDS011;63002;48.134;-1.948;2023-09-12T16:14:48;3.35;;;0.50;;
74519;SDS011;63002;48.134;-1.948;2023-09-12T16:17:18;2.28;;;0.50;;
74519;SDS011;63002;48.134;-1.948;2023-09-12T16:19:44;2.00;;;0.70;;
74519;SDS011;63002;48.134;-1.948;2023-09-12T16:22:10;2.60;;;0.50;;
74519;SDS011;63002;48.134;-1.948;2023-09-12T16:24:37;2.80;;;0.43;;
74519;SDS011;63002;48.134;-1.948;2023-09-12T16:27:02;1.60;;;0.50;;
74519;SDS011;63002;48.134;-1.948;2023-09-12T16:29:29;3.45;;;0.40;;
74519;SDS011;63002;48.134;-1.948;2023-09-12T16:31:55;6.03;;;0.97;;
74519;SDS011;63002;48.134;-1.948;2023-09-12T16:34:21;7.15;;;1.52;;
74519;SDS011;63002;48.134;-1.948;2023-09-12T16:36:46;7.70;;;1.70;;
74519;SDS011;63002;48.134;-1.948;2023-09-12T16:39:13;8.20;;;1.77;;
74519;SDS011;63002;48.134;-1.948;2023-09-12T16:41:39;8.10;;;1.60;;
74519;SDS011;63002;48.134;-1.948;2023-09-12T16:44:04;7.03;;;1.53;;
74519;SDS011;63002;48.134;-1.948;2023-09-12T16:46:30;6.55;;;1.58;;
74519;SDS011;63002;48.134;-1.948;2023-09-12T16:48:56;8.70;;;1.80;;
74519;SDS011;63002;48.134;-1.948;2023-09-12T16:51:22;7.47;;;1.60;;
74519;SDS011;63002;48.134;-1.948;2023-09-12T16:53:49;5.43;;;1.43;;
74519;SDS011;63002;48.134;-1.948;2023-09-12T16:56:16;7.63;;;1.83;;
74519;SDS011;63002;48.134;-1.948;2023-09-12T16:58:42;7.50;;;1.80;;
74519;SDS011;63002;48.134;-1.948;2023-09-12T17:01:08;11.77;;;1.90;;
74519;SDS011;63002;48.134;-1.948;2023-09-12T17:03:34;10.02;;;2.17;;
74519;SDS011;63002;48.134;-1.948;2023-09-12T17:06:00;8.55;;;1.65;;
74519;SDS011;63002;48.134;-1.948;2023-09-12T17:08:27;8.20;;;1.52;;
74519;SDS011;63002;48.134;-1.948;2023-09-12T17:10:53;6.07;;;1.50;;
74519;SDS011;63002;48.134;-1.948;2023-09-12T17:13:19;8.98;;;1.60;;
74519;SDS011;63002;48.134;-1.948;2023-09-12T17:15:45;13.02;;;1.65;;
74519;SDS011;63002;48.134;-1.948;2023-09-12T17:18:11;8.60;;;1.23;;
74519;SDS011;63002;48.134;-1.948;2023-09-12T17:20:37;7.10;;;1.25;;
74519;SDS011;63002;48.134;-1.948;2023-09-12T17:23:02;7.77;;;1.30;;
74519;SDS011;63002;48.134;-1.948;2023-09-12T17:25:28;10.55;;;1.33;;
74519;SDS011;63002;48.134;-1.948;2023-09-12T17:27:54;7.22;;;1.48;;
74519;SDS011;63002;48.134;-1.948;2023-09-12T17:30:20;7.23;;;1.70;;
74519;SDS011;63002;48.134;-1.948;2023-09-12T17:32:47;10.50;;;2.05;;
74519;SDS011;63002;48.134;-1.948;2023-09-12T17:35:12;5.43;;;1.20;;
74519;SDS011;63002;48.134;-1.948;2023-09-12T17:37:38;7.83;;;1.40;;
74519;SDS011;63002;48.134;-1.948;2023-09-12T17:40:07;8.52;;;1.75;;
74519;SDS011;63002;48.134;-1.948;2023-09-12T17:42:33;8.82;;;1.52;;
74519;SDS011;63002;48.134;-1.948;2023-09-12T17:45:00;7.97;;;1.45;;
74519;SDS011;63002;48.134;-1.948;2023-09-12T17:47:26;6.67;;;1.23;;
74519;SDS011;63002;48.134;-1.948;2023-09-12T17:49:52;9.98;;;1.38;;
74519;SDS011;63002;48.134;-1.948;2023-09-12T17:52:18;7.55;;;1.40;;
74519;SDS011;63002;48.134;-1.948;2023-09-12T17:54:44;7.53;;;1.60;;
74519;SDS011;63002;48.134;-1.948;2023-09-12T17:57:10;10.43;;;1.75;;
74519;SDS011;63002;48.134;-1.948;2023-09-12T17:59:38;9.10;;;2.13;;
74519;SDS011;63002;48.134;-1.948;2023-09-12T18:02:06;11.95;;;1.48;;
74519;SDS011;63002;48.134;-1.948;2023-09-12T18:04:32;7.22;;;1.60;;
74519;SDS011;63002;48.134;-1.948;2023-09-12T18:06:59;6.93;;;0.90;;
74519;SDS011;63002;48.134;-1.948;2023-09-12T18:09:27;9.52;;;1.35;;
74519;SDS011;63002;48.134;-1.948;2023-09-12T18:11:53;11.00;;;1.55;;
74519;SDS011;63002;48.134;-1.948;2023-09-12T18:14:20;6.70;;;1.30;;
74519;SDS011;63002;48.134;-1.948;2023-09-12T18:16:45;8.90;;;1.40;;
74519;SDS011;63002;48.134;-1.948;2023-09-12T18:19:11;7.63;;;1.10;;
74519;SDS011;63002;48.134;-1.948;2023-09-12T18:21:37;8.65;;;1.30;;
74519;SDS011;63002;48.134;-1.948;2023-09-12T18:24:04;13.00;;;2.03;;
74519;SDS011;63002;48.134;-1.948;2023-09-12T18:26:31;14.27;;;1.33;;
74519;SDS011;63002;48.134;-1.948;2023-09-12T18:28:56;8.23;;;1.55;;
74519;SDS011;63002;48.134;-1.948;2023-09-12T18:31:22;12.45;;;1.60;;
74519;SDS011;63002;48.134;-1.948;2023-09-12T18:33:48;14.93;;;1.70;;
74519;SDS011;63002;48.134;-1.948;2023-09-12T18:36:14;9.52;;;1.45;;
74519;SDS011;63002;48.134;-1.948;2023-09-12T18:38:40;9.27;;;1.50;;
74519;SDS011;63002;48.134;-1.948;2023-09-12T18:41:07;8.27;;;1.50;;
74519;SDS011;63002;48.134;-1.948;2023-09-12T18:43:33;9.38;;;1.55;;
74519;SDS011;63002;48.134;-1.948;2023-09-12T18:45:59;8.10;;;1.67;;
74519;SDS011;63002;48.134;-1.948;2023-09-12T18:48:25;7.65;;;1.70;;
74519;SDS011;63002;48.134;-1.948;2023-09-12T18:50:51;7.90;;;1.27;;
74519;SDS011;63002;48.134;-1.948;2023-09-12T18:53:17;8.63;;;1.33;;
74519;SDS011;63002;48.134;-1.948;2023-09-12T18:55:44;10.15;;;1.33;;
74519;SDS011;63002;48.134;-1.948;2023-09-12T18:58:10;6.63;;;1.17;;
74519;SDS011;63002;48.134;-1.948;2023-09-12T19:00:37;8.18;;;1.30;;
74519;SDS011;63002;48.134;-1.948;2023-09-12T19:03:06;9.32;;;1.63;;
74519;SDS011;63002;48.134;-1.948;2023-09-12T19:05:32;7.77;;;1.50;;
74519;SDS011;63002;48.134;-1.948;2023-09-12T19:08:07;21.23;;;1.27;;
74519;SDS011;63002;48.134;-1.948;2023-09-12T19:10:33;13.63;;;2.20;;
74519;SDS011;63002;48.134;-1.948;2023-09-12T19:12:59;24.38;;;3.20;;
74519;SDS011;63002;48.134;-1.948;2023-09-12T19:15:25;25.13;;;4.75;;
74519;SDS011;63002;48.134;-1.948;2023-09-12T19:17:51;25.35;;;4.53;;
74519;SDS011;63002;48.134;-1.948;2023-09-12T19:20:17;19.80;;;4.13;;
74519;SDS011;63002;48.134;-1.948;2023-09-12T19:22:44;18.33;;;4.40;;
74519;SDS011;63002;48.134;-1.948;2023-09-12T19:25:10;17.55;;;4.28;;
74519;SDS011;63002;48.134;-1.948;2023-09-12T19:27:36;16.10;;;3.42;;
74519;SDS011;63002;48.134;-1.948;2023-09-12T19:30:03;14.90;;;3.10;;
74519;SDS011;63002;48.134;-1.948;2023-09-12T19:32:32;14.98;;;3.20;;
74519;SDS011;63002;48.134;-1.948;2023-09-12T19:34:58;11.63;;;2.70;;
74519;SDS011;63002;48.134;-1.948;2023-09-12T19:37:25;10.88;;;2.22;;
74519;SDS011;63002;48.134;-1.948;2023-09-12T19:39:51;12.23;;;2.35;;
74519;SDS011;63002;48.134;-1.948;2023-09-12T19:42:17;10.97;;;2.23;;
74519;SDS011;63002;48.134;-1.948;2023-09-12T19:44:43;8.68;;;2.30;;
74519;SDS011;63002;48.134;-1.948;2023-09-12T19:47:13;9.23;;;2.17;;